AUR556 EGJJ-LFRZ
Flight info
| Callsign | AUR556 |
|---|---|
| Flight time | N/A |
| Altitude | 7000 |
| Route | DIN A25 REN UN862 GODAN |
| Aircraft | C208/L-SDFGR/C |
Departure
| Time | N/A |
|---|---|
| Airport | Jersey Airport (EGJJ) |
Arrival
| Time | 2026-04-24 19:01 |
|---|---|
| Airport | Saint-Nazaire-Montoir Airport (LFRZ) |
| Time | Latitude | Longitude | Altitude | Speed | Heading |
|---|---|---|---|---|---|
| 2026-04-24 18:54 | 47.52001 | -1.99747 | 5624 ft | 144 kts | 180° |
| 2026-04-24 18:55 | 47.48079 | -2.00154 | 4601 ft | 138 kts | 179° |
| 2026-04-24 18:55 | 47.46168 | -2.00353 | 4140 ft | 137 kts | 180° |
| 2026-04-24 18:55 | 47.44265 | -2.00550 | 3690 ft | 136 kts | 180° |
| 2026-04-24 18:56 | 47.42673 | -2.00714 | 3316 ft | 136 kts | 179° |
| 2026-04-24 18:56 | 47.41744 | -2.00810 | 3095 ft | 135 kts | 180° |
| 2026-04-24 18:56 | 47.40806 | -2.00907 | 2870 ft | 135 kts | 180° |
| 2026-04-24 18:56 | 47.39872 | -2.01004 | 2645 ft | 134 kts | 179° |
| 2026-04-24 18:57 | 47.38941 | -2.01099 | 2417 ft | 134 kts | 179° |
| 2026-04-24 18:57 | 47.38026 | -2.01196 | 2208 ft | 133 kts | 180° |
| 2026-04-24 18:57 | 47.37111 | -2.01288 | 2030 ft | 130 kts | 180° |
| 2026-04-24 18:57 | 47.36253 | -2.01380 | 2023 ft | 121 kts | 180° |
| 2026-04-24 18:58 | 47.35427 | -2.01466 | 2010 ft | 116 kts | 180° |
| 2026-04-24 18:58 | 47.34634 | -2.01552 | 2009 ft | 113 kts | 181° |
| 2026-04-24 18:58 | 47.33929 | -2.02050 | 2011 ft | 117 kts | 225° |
| 2026-04-24 18:58 | 47.33548 | -2.03142 | 1745 ft | 129 kts | 250° |
| 2026-04-24 18:59 | 47.33276 | -2.04389 | 1438 ft | 124 kts | 252° |
| 2026-04-24 18:59 | 47.33042 | -2.05572 | 1246 ft | 116 kts | 253° |
| 2026-04-24 18:59 | 47.32824 | -2.06691 | 1055 ft | 112 kts | 252° |
| 2026-04-24 18:59 | 47.32601 | -2.07768 | 891 ft | 107 kts | 253° |
| 2026-04-24 19:00 | 47.32396 | -2.08804 | 730 ft | 103 kts | 253° |
| 2026-04-24 19:00 | 47.32219 | -2.09816 | 563 ft | 102 kts | 256° |
| 2026-04-24 19:00 | 47.32056 | -2.10793 | 446 ft | 96 kts | 253° |
| 2026-04-24 19:00 | 47.31849 | -2.11714 | 306 ft | 94 kts | 251° |
| 2026-04-24 19:01 | 47.31671 | -2.12630 | 172 ft | 92 kts | 254° |
| 2026-04-24 19:01 | 47.31493 | -2.13546 | 28 ft | 91 kts | 252° |
| 2026-04-24 19:01 | 47.31331 | -2.14368 | 17 ft | 64 kts | 253° |
| 2026-04-24 19:01 | 47.31275 | -2.14674 | 19 ft | 0 kts | 254° |